Weather at Ramat David Air Base

Public forecast

Using degrees Celsius for public forecast. Weather courtesy of forecast.io.

Closest aviation weather report (METAR) to Ramat David Air Base

Closest report is Haifa International Airport, 11.1 nm (20.5 km) NW. Retrieved 2021/10/28 09:50 UTC (1 hour ago):

LLHA 280950Z 09004KT CAVOK 28/09 Q1014 RMK FEW130

Closest aviation forecast (TAF) to Ramat David Air Base

Closest forecast is Haifa International Airport, 11.1 nm (20.5 km) NW. Retrieved 2021/10/28 06:00 UTC (5 hours ago):

TAF LLHA 280504Z 2806/2906 14005KT CAVOK BECMG 2808/2811 34015KT BECMG 2817/2819 02007KT BECMG 2821/2823 VRB04KT TEMPO 2900/2906 14005KT TX29/2811Z TN19/2904Z